createdAt,value
2018-12-18T00:00:17.130Z,101212.67
2018-12-18T00:00:52.246Z,101219.09
2018-12-18T00:01:29.035Z,101221.67
2018-12-18T00:02:06.554Z,101214.39
2018-12-18T00:02:41.541Z,101217.81
2018-12-18T00:03:16.160Z,101215.25
2018-12-18T00:03:50.794Z,101217.81
2018-12-18T00:04:25.548Z,101217.83
2018-12-18T00:05:04.299Z,101214.84
2018-12-18T00:05:38.933Z,101213.98
2018-12-18T00:06:13.673Z,101213.55
2018-12-18T00:06:48.422Z,101213.13
2018-12-18T00:07:23.146Z,101212.68
2018-12-18T00:07:57.768Z,101213.11
2018-12-18T00:08:32.426Z,101217.41
2018-12-18T00:09:08.309Z,101210.98
2018-12-18T00:09:42.934Z,101218.25
2018-12-18T00:10:17.711Z,101210.11
2018-12-18T00:10:58.014Z,101215.70
2018-12-18T00:11:32.619Z,101217.84
2018-12-18T00:12:07.274Z,101209.69
2018-12-18T00:12:41.885Z,101213.55
2018-12-18T00:13:16.625Z,101219.09
2018-12-18T00:13:51.253Z,101216.11
2018-12-18T00:14:25.880Z,101217.38
2018-12-18T00:15:00.525Z,101213.97
2018-12-18T00:15:35.182Z,101217.82
2018-12-18T00:16:09.884Z,101218.27
2018-12-18T00:16:44.505Z,101210.55
2018-12-18T00:17:19.369Z,101213.53
2018-12-18T00:17:54.031Z,101209.27
2018-12-18T00:18:29.035Z,101216.55
2018-12-18T00:19:03.632Z,101213.98
2018-12-18T00:19:38.281Z,101214.84
2018-12-18T00:20:12.902Z,101207.98
2018-12-18T00:20:47.497Z,101212.25
2018-12-18T00:21:22.233Z,101210.55
2018-12-18T00:21:56.935Z,101212.24
2018-12-18T00:22:31.640Z,101208.41
2018-12-18T00:23:06.250Z,101211.83
2018-12-18T00:23:40.897Z,101205.44
2018-12-18T00:24:15.782Z,101213.56
2018-12-18T00:24:50.430Z,101207.56
2018-12-18T00:25:25.157Z,101209.72
2018-12-18T00:25:59.774Z,101211.83
2018-12-18T00:26:34.407Z,101204.98
2018-12-18T00:27:09.013Z,101208.00
2018-12-18T00:27:43.651Z,101200.72
2018-12-18T00:28:18.285Z,101198.59
2018-12-18T00:28:53.103Z,101204.15
2018-12-18T00:29:27.714Z,101201.15
2018-12-18T00:30:02.500Z,101200.30
2018-12-18T00:30:38.977Z,101207.56
2018-12-18T00:31:13.591Z,101197.72
2018-12-18T00:31:48.291Z,101202.44
2018-12-18T00:32:22.974Z,101203.28
2018-12-18T00:32:57.619Z,101196.02
2018-12-18T00:33:32.321Z,101201.56
2018-12-18T00:34:06.977Z,101192.59
2018-12-18T00:34:41.568Z,101191.74
2018-12-18T00:35:16.211Z,101198.56
2018-12-18T00:35:50.901Z,101195.59
2018-12-18T00:36:25.529Z,101193.45
2018-12-18T00:37:00.157Z,101191.73
2018-12-18T00:37:34.954Z,101193.04
2018-12-18T00:38:09.597Z,101190.45
2018-12-18T00:38:44.222Z,101198.59
2018-12-18T00:39:19.191Z,101198.16
2018-12-18T00:39:53.924Z,101189.17
2018-12-18T00:40:28.585Z,101199.44
2018-12-18T00:41:03.736Z,101202.87
2018-12-18T00:41:38.470Z,101193.88
2018-12-18T00:42:13.177Z,101188.31
2018-12-18T00:42:47.823Z,101195.58
2018-12-18T00:43:22.477Z,101191.76
2018-12-18T00:43:57.200Z,101187.46
2018-12-18T00:44:31.800Z,101192.17
2018-12-18T00:45:07.644Z,101188.77
2018-12-18T00:45:42.569Z,101191.73
2018-12-18T00:46:17.206Z,101186.61
2018-12-18T00:46:51.862Z,101184.48
2018-12-18T00:47:26.577Z,101188.75
2018-12-18T00:48:01.171Z,101188.75
2018-12-18T00:48:35.800Z,101194.30
2018-12-18T00:49:10.429Z,101192.17
2018-12-18T00:49:45.121Z,101184.91
2018-12-18T00:50:19.976Z,101188.75
2018-12-18T00:50:54.644Z,101178.49
2018-12-18T00:51:29.246Z,101185.34
2018-12-18T00:52:03.861Z,101190.88
2018-12-18T00:52:38.493Z,101189.18
2018-12-18T00:53:13.100Z,101189.59
2018-12-18T00:53:47.799Z,101190.89
2018-12-18T00:54:22.923Z,101192.59
2018-12-18T00:54:57.544Z,101190.91
2018-12-18T00:55:32.247Z,101187.88
2018-12-18T00:56:06.980Z,101187.90
2018-12-18T00:56:41.574Z,101182.34
2018-12-18T00:57:16.317Z,101191.73
2018-12-18T00:57:50.995Z,101186.17
2018-12-18T00:58:25.728Z,101186.17
2018-12-18T00:59:00.352Z,101179.35
2018-12-18T00:59:34.968Z,101180.22
2018-12-18T01:00:10.568Z,101181.91
2018-12-18T01:00:45.405Z,101178.50
2018-12-18T01:01:20.113Z,101181.47
2018-12-18T01:02:01.475Z,101179.34
2018-12-18T01:02:36.144Z,101179.77
2018-12-18T01:03:10.902Z,101179.34
2018-12-18T01:03:45.466Z,101178.49
2018-12-18T01:04:20.146Z,101178.08
2018-12-18T01:04:54.754Z,101178.92
2018-12-18T01:05:29.372Z,101187.04
2018-12-18T01:06:04.425Z,101181.06
2018-12-18T01:06:39.055Z,101178.94
2018-12-18T01:07:13.675Z,101179.77
2018-12-18T01:07:53.315Z,101173.34
2018-12-18T01:08:24.993Z,101183.62
2018-12-18T01:08:59.656Z,101178.06
2018-12-18T01:09:34.284Z,101178.90
2018-12-18T01:10:09.407Z,101179.77
2018-12-18T01:10:44.055Z,101177.62
2018-12-18T01:11:18.728Z,101186.20
2018-12-18T01:11:53.370Z,101177.62
2018-12-18T01:12:28.055Z,101175.49
2018-12-18T01:13:02.725Z,101182.34
2018-12-18T01:13:37.388Z,101175.52
2018-12-18T01:14:12.019Z,101176.80
2018-12-18T01:14:46.666Z,101176.76
2018-12-18T01:15:21.429Z,101178.07
2018-12-18T01:15:56.045Z,101183.19
2018-12-18T01:16:31.229Z,101184.05
2018-12-18T01:17:05.891Z,101178.05
2018-12-18T01:17:40.518Z,101190.02
2018-12-18T01:18:15.626Z,101177.62
2018-12-18T01:18:50.441Z,101181.06
2018-12-18T01:19:25.187Z,101179.77
2018-12-18T01:19:59.802Z,101177.20
2018-12-18T01:20:34.464Z,101176.77
2018-12-18T01:21:09.533Z,101173.34
2018-12-18T01:21:44.328Z,101177.20
2018-12-18T01:22:18.967Z,101179.80
2018-12-18T01:22:53.594Z,101172.92
2018-12-18T01:23:28.544Z,101174.20
2018-12-18T01:24:03.165Z,101172.95
2018-12-18T01:24:37.829Z,101172.06
2018-12-18T01:25:12.624Z,101178.05
2018-12-18T01:25:47.369Z,101178.90
2018-12-18T01:26:22.083Z,101178.08
2018-12-18T01:26:56.689Z,101182.78
2018-12-18T01:27:31.451Z,101180.19
2018-12-18T01:28:06.105Z,101177.64
2018-12-18T01:28:40.711Z,101185.33
2018-12-18T01:29:15.368Z,101185.77
2018-12-18T01:29:49.986Z,101184.03
2018-12-18T01:30:25.181Z,101180.19
2018-12-18T01:30:59.812Z,101181.50
2018-12-18T01:31:34.562Z,101185.32
2018-12-18T01:32:09.209Z,101180.20
2018-12-18T01:32:43.833Z,101184.05
2018-12-18T01:33:18.482Z,101178.92
2018-12-18T01:33:59.149Z,101185.77
2018-12-18T01:34:29.689Z,101175.08
2018-12-18T01:35:05.900Z,101183.63
2018-12-18T01:35:40.608Z,101184.47
2018-12-18T01:36:15.337Z,101181.05
2018-12-18T01:36:49.967Z,101176.80
2018-12-18T01:37:24.695Z,101175.06
2018-12-18T01:37:59.411Z,101178.92
2018-12-18T01:38:34.162Z,101174.63
2018-12-18T01:39:08.818Z,101175.94
2018-12-18T01:39:43.408Z,101171.23
2018-12-18T01:40:18.037Z,101176.77
2018-12-18T01:40:52.772Z,101174.20
2018-12-18T01:41:27.486Z,101174.23
2018-12-18T01:42:02.145Z,101176.34
2018-12-18T01:42:36.782Z,101165.22
2018-12-18T01:43:11.878Z,101180.20
2018-12-18T01:43:46.662Z,101172.94
2018-12-18T01:44:21.295Z,101174.21
2018-12-18T01:44:55.939Z,101171.22
2018-12-18T01:45:30.677Z,101172.09
2018-12-18T01:46:05.331Z,101176.34
2018-12-18T01:46:39.951Z,101174.64
2018-12-18T01:47:15.082Z,101171.20
2018-12-18T01:47:49.749Z,101163.52
2018-12-18T01:48:24.432Z,101169.93
2018-12-18T01:48:59.064Z,101175.05
2018-12-18T01:49:33.657Z,101170.78
2018-12-18T01:50:09.193Z,101169.50
2018-12-18T01:50:43.829Z,101168.24
2018-12-18T01:51:18.467Z,101168.64
2018-12-18T01:51:53.178Z,101173.36
2018-12-18T01:52:27.844Z,101166.10
2018-12-18T01:53:02.516Z,101173.80
2018-12-18T01:53:37.194Z,101170.34
2018-12-18T01:54:11.797Z,101172.94
2018-12-18T01:54:46.437Z,101172.08
2018-12-18T01:55:21.133Z,101157.11
2018-12-18T01:55:55.807Z,101172.06
2018-12-18T01:56:30.437Z,101174.64
2018-12-18T01:57:05.116Z,101171.20
2018-12-18T01:57:39.733Z,101173.36
2018-12-18T01:58:14.362Z,101166.09
2018-12-18T01:58:49.006Z,101171.66
2018-12-18T01:59:23.758Z,101170.36
2018-12-18T01:59:58.379Z,101170.37
2018-12-18T02:00:33.037Z,101168.24
2018-12-18T02:01:07.760Z,101166.95
2018-12-18T02:01:42.841Z,101160.12
2018-12-18T02:02:18.136Z,101165.23
2018-12-18T02:02:52.821Z,101156.27
2018-12-18T02:03:27.934Z,101158.40
2018-12-18T02:04:05.987Z,101170.38
2018-12-18T02:04:39.145Z,101164.81
2018-12-18T02:05:13.902Z,101172.08
2018-12-18T02:05:48.566Z,101163.09
2018-12-18T02:06:23.288Z,101162.67
2018-12-18T02:06:57.993Z,101166.95
2018-12-18T02:07:32.594Z,101159.69
2018-12-18T02:08:07.218Z,101154.98
2018-12-18T02:08:41.878Z,101165.24
2018-12-18T02:09:16.561Z,101155.84
2018-12-18T02:09:51.296Z,101162.67
2018-12-18T02:10:26.673Z,101163.53
2018-12-18T02:11:01.327Z,101163.12
2018-12-18T02:11:36.029Z,101158.83
2018-12-18T02:12:10.666Z,101157.98
2018-12-18T02:12:45.300Z,101158.39
2018-12-18T02:13:20.162Z,101158.83
2018-12-18T02:13:54.810Z,101153.27
2018-12-18T02:14:29.525Z,101157.11
2018-12-18T02:15:05.713Z,101161.81
2018-12-18T02:15:40.389Z,101156.27
2018-12-18T02:16:15.002Z,101157.97
2018-12-18T02:16:49.714Z,101155.40
2018-12-18T02:17:24.305Z,101153.70
2018-12-18T02:17:58.905Z,101163.09
2018-12-18T02:18:33.573Z,101160.97
2018-12-18T02:19:08.205Z,101161.38
2018-12-18T02:19:42.834Z,101157.96
2018-12-18T02:20:17.504Z,101155.84
2018-12-18T02:20:52.120Z,101153.26
2018-12-18T02:21:26.829Z,101145.16
2018-12-18T02:22:01.435Z,101154.96
2018-12-18T02:22:36.076Z,101152.42
2018-12-18T02:23:10.796Z,101153.28
2018-12-18T02:23:45.418Z,101154.14
2018-12-18T02:24:20.058Z,101158.40
2018-12-18T02:24:54.665Z,101156.26
2018-12-18T02:25:29.361Z,101167.36
2018-12-18T02:26:04.472Z,101156.24
2018-12-18T02:26:39.101Z,101155.83
2018-12-18T02:27:13.755Z,101153.27
2018-12-18T02:27:48.374Z,101154.14
2018-12-18T02:28:23.008Z,101146.42
2018-12-18T02:28:57.635Z,101156.27
2018-12-18T02:29:32.258Z,101154.55
2018-12-18T02:30:07.763Z,101148.56
2018-12-18T02:30:42.531Z,101147.72
2018-12-18T02:31:17.246Z,101151.13
2018-12-18T02:31:51.938Z,101154.55
2018-12-18T02:32:26.555Z,101147.71
2018-12-18T02:33:01.180Z,101146.45
2018-12-18T02:33:35.813Z,101147.27
2018-12-18T02:34:13.804Z,101148.13
2018-12-18T02:34:47.031Z,101139.16
2018-12-18T02:35:21.723Z,101146.85
2018-12-18T02:35:56.352Z,101143.84
2018-12-18T02:36:31.031Z,101139.16
2018-12-18T02:37:05.659Z,101145.58
2018-12-18T02:37:40.534Z,101144.72
2018-12-18T02:38:15.142Z,101143.88
2018-12-18T02:38:49.809Z,101142.16
2018-12-18T02:39:24.448Z,101142.14
2018-12-18T02:39:59.310Z,101146.01
2018-12-18T02:40:34.224Z,101148.98
2018-12-18T02:41:08.853Z,101145.58
2018-12-18T02:41:43.993Z,101141.31
2018-12-18T02:42:19.600Z,101142.16
2018-12-18T02:42:54.261Z,101141.72
2018-12-18T02:43:28.898Z,101141.71
2018-12-18T02:44:03.499Z,101147.70
2018-12-18T02:44:38.120Z,101148.55
2018-12-18T02:45:12.757Z,101142.59
2018-12-18T02:45:47.382Z,101144.72
2018-12-18T02:46:22.141Z,101148.57
2018-12-18T02:46:56.766Z,101147.72
2018-12-18T02:47:31.834Z,101152.84
2018-12-18T02:48:06.440Z,101151.14
2018-12-18T02:48:41.117Z,101153.27
2018-12-18T02:49:15.809Z,101148.57
2018-12-18T02:49:50.542Z,101149.41
2018-12-18T02:50:25.245Z,101145.98
2018-12-18T02:50:59.857Z,101142.59
2018-12-18T02:51:34.484Z,101144.73
2018-12-18T02:52:09.162Z,101144.72
2018-12-18T02:52:43.764Z,101144.71
2018-12-18T02:53:18.390Z,101142.16
2018-12-18T02:53:53.128Z,101143.44
2018-12-18T02:54:27.749Z,101143.00
2018-12-18T02:55:02.452Z,101143.86
2018-12-18T02:55:37.056Z,101135.75
2018-12-18T02:56:11.695Z,101140.88
2018-12-18T02:56:46.416Z,101139.16
2018-12-18T02:57:21.061Z,101137.02
2018-12-18T02:57:55.688Z,101142.16
2018-12-18T02:58:30.717Z,101133.60
2018-12-18T02:59:05.392Z,101141.29
2018-12-18T02:59:40.674Z,101142.14
2018-12-18T03:00:15.797Z,101137.01
2018-12-18T03:00:50.464Z,101131.47
2018-12-18T03:01:25.186Z,101140.44
2018-12-18T03:01:59.800Z,101131.87
2018-12-18T03:02:34.502Z,101130.59
2018-12-18T03:03:09.104Z,101135.73
2018-12-18T03:03:43.717Z,101135.73
2018-12-18T03:04:21.725Z,101142.13
2018-12-18T03:04:54.980Z,101138.26
2018-12-18T03:05:29.592Z,101143.41
2018-12-18T03:06:04.251Z,101143.81
2018-12-18T03:06:39.346Z,101143.42
2018-12-18T03:07:13.933Z,101140.84
2018-12-18T03:07:48.628Z,101136.58
2018-12-18T03:08:23.411Z,101141.69
2018-12-18T03:08:58.037Z,101138.27
2018-12-18T03:09:32.756Z,101133.57
2018-12-18T03:10:07.823Z,101136.97
2018-12-18T03:10:42.436Z,101139.55
2018-12-18T03:11:21.354Z,101129.73
2018-12-18T03:11:56.006Z,101136.16
2018-12-18T03:12:30.619Z,101140.00
2018-12-18T03:13:05.231Z,101137.42
2018-12-18T03:13:39.845Z,101139.14
2018-12-18T03:14:14.483Z,101136.14
2018-12-18T03:14:49.197Z,101128.45
2018-12-18T03:15:23.803Z,101138.28
2018-12-18T03:15:58.554Z,101136.15
2018-12-18T03:16:33.187Z,101129.74
2018-12-18T03:17:07.843Z,101127.63
2018-12-18T03:17:42.501Z,101130.60
2018-12-18T03:18:17.102Z,101128.87
2018-12-18T03:18:51.816Z,101133.60
2018-12-18T03:19:26.881Z,101140.02
2018-12-18T03:20:01.604Z,101131.45
2018-12-18T03:20:36.498Z,101129.34
2018-12-18T03:21:11.191Z,101127.19
2018-12-18T03:21:46.291Z,101131.87
2018-12-18T03:22:20.944Z,101133.16
2018-12-18T03:22:55.548Z,101127.63
2018-12-18T03:23:30.267Z,101131.45
2018-12-18T03:24:04.873Z,101132.30
2018-12-18T03:24:39.501Z,101132.72
2018-12-18T03:25:14.218Z,101134.87
2018-12-18T03:25:49.117Z,101125.47
2018-12-18T03:26:23.857Z,101132.72
2018-12-18T03:26:58.468Z,101131.44
2018-12-18T03:27:33.080Z,101125.02
2018-12-18T03:28:07.686Z,101122.05
2018-12-18T03:28:42.316Z,101128.05
2018-12-18T03:29:17.023Z,101127.18
2018-12-18T03:29:51.778Z,101129.34
2018-12-18T03:30:26.666Z,101130.60
2018-12-18T03:31:01.769Z,101129.77
2018-12-18T03:31:37.761Z,101130.18
2018-12-18T03:32:17.074Z,101123.33
2018-12-18T03:32:54.646Z,101128.48
2018-12-18T03:33:29.605Z,101126.33
2018-12-18T03:34:04.295Z,101132.73
2018-12-18T03:34:38.930Z,101135.75
2018-12-18T03:35:13.553Z,101132.34
2018-12-18T03:35:48.209Z,101129.32
2018-12-18T03:36:23.197Z,101128.89
2018-12-18T03:36:58.328Z,101130.19
2018-12-18T03:37:32.975Z,101131.45
2018-12-18T03:38:07.564Z,101132.31
2018-12-18T03:38:42.197Z,101129.31
2018-12-18T03:39:16.807Z,101128.48
2018-12-18T03:39:51.430Z,101126.77
2018-12-18T03:40:26.035Z,101135.73
2018-12-18T03:41:01.299Z,101134.45
2018-12-18T03:41:35.909Z,101131.47
2018-12-18T03:42:10.592Z,101130.60
2018-12-18T03:42:45.214Z,101128.89
2018-12-18T03:43:19.862Z,101130.62
2018-12-18T03:43:54.589Z,101130.61
2018-12-18T03:44:29.206Z,101125.91
2018-12-18T03:45:04.362Z,101127.20
2018-12-18T03:45:39.014Z,101132.75
2018-12-18T03:46:13.882Z,101127.64
2018-12-18T03:46:48.580Z,101128.48
2018-12-18T03:47:23.181Z,101128.90
2018-12-18T03:47:57.891Z,101131.91
2018-12-18T03:48:32.494Z,101135.75
2018-12-18T03:49:07.637Z,101130.20
2018-12-18T03:49:42.268Z,101136.17
2018-12-18T03:50:16.954Z,101131.48
2018-12-18T03:50:51.605Z,101133.61
2018-12-18T03:51:26.285Z,101134.02
2018-12-18T03:52:00.921Z,101134.86
2018-12-18T03:52:35.531Z,101133.59
2018-12-18T03:53:10.343Z,101132.75
2018-12-18T03:53:45.097Z,101131.87
2018-12-18T03:54:19.798Z,101135.72
2018-12-18T03:54:54.718Z,101133.16
2018-12-18T03:55:29.557Z,101137.44
2018-12-18T03:56:04.219Z,101129.73
2018-12-18T03:56:38.846Z,101133.58
2018-12-18T03:57:13.550Z,101133.16
2018-12-18T03:57:48.185Z,101131.02
2018-12-18T03:58:22.921Z,101137.84
2018-12-18T03:58:57.545Z,101137.00
2018-12-18T03:59:32.202Z,101135.30
2018-12-18T04:00:11.717Z,101142.14
2018-12-18T04:00:46.613Z,101136.57
2018-12-18T04:01:21.225Z,101133.16
2018-12-18T04:01:55.886Z,101139.14
2018-12-18T04:02:30.492Z,101139.56
2018-12-18T04:03:06.130Z,101133.59
2018-12-18T04:03:40.751Z,101139.58
2018-12-18T04:04:15.358Z,101138.27
2018-12-18T04:04:50.109Z,101131.02
2018-12-18T04:05:24.836Z,101135.30
2018-12-18T04:05:59.910Z,101131.86
2018-12-18T04:06:34.548Z,101124.20
2018-12-18T04:07:09.287Z,101125.88
2018-12-18T04:07:44.178Z,101132.74
2018-12-18T04:08:18.814Z,101129.75
2018-12-18T04:08:53.483Z,101138.73
2018-12-18T04:09:28.094Z,101131.45
2018-12-18T04:10:02.773Z,101132.75
2018-12-18T04:10:37.630Z,101133.59
2018-12-18T04:11:12.284Z,101135.73
2018-12-18T04:11:52.230Z,101142.16
2018-12-18T04:12:26.953Z,101132.76
2018-12-18T04:13:01.654Z,101132.33
2018-12-18T04:13:36.372Z,101135.73
2018-12-18T04:14:10.995Z,101137.00
2018-12-18T04:14:45.589Z,101138.28
2018-12-18T04:15:20.663Z,101138.31
2018-12-18T04:15:55.407Z,101140.84
2018-12-18T04:16:30.559Z,101135.73
2018-12-18T04:17:05.635Z,101134.45
2018-12-18T04:17:40.311Z,101131.03
2018-12-18T04:18:15.012Z,101136.60
2018-12-18T04:18:49.845Z,101127.61
2018-12-18T04:19:24.483Z,101135.30
2018-12-18T04:19:59.060Z,101133.17
2018-12-18T04:20:34.061Z,101132.30
2018-12-18T04:21:09.090Z,101136.60
2018-12-18T04:21:43.712Z,101134.87
2018-12-18T04:22:19.604Z,101138.73
2018-12-18T04:22:54.258Z,101137.02
2018-12-18T04:23:29.338Z,101133.58
2018-12-18T04:24:04.542Z,101131.48
2018-12-18T04:24:39.158Z,101140.00
2018-12-18T04:25:13.799Z,101135.73
2018-12-18T04:25:48.436Z,101133.17
2018-12-18T04:26:23.081Z,101133.17
2018-12-18T04:26:57.724Z,101129.77
2018-12-18T04:27:32.341Z,101125.05
2018-12-18T04:28:06.928Z,101133.59
2018-12-18T04:28:41.565Z,101130.62
2018-12-18T04:29:16.194Z,101127.17
2018-12-18T04:29:50.872Z,101125.06
2018-12-18T04:30:25.521Z,101125.89
2018-12-18T04:31:00.138Z,101126.76
2018-12-18T04:31:34.761Z,101124.19
2018-12-18T04:32:09.378Z,101135.30
2018-12-18T04:32:43.985Z,101125.91
2018-12-18T04:33:18.898Z,101125.46
2018-12-18T04:33:53.641Z,101126.34
2018-12-18T04:34:28.267Z,101122.51
2018-12-18T04:35:03.353Z,101128.91
2018-12-18T04:35:37.958Z,101126.75
2018-12-18T04:36:12.617Z,101128.47
2018-12-18T04:36:47.230Z,101128.91
2018-12-18T04:37:28.481Z,101131.48
2018-12-18T04:38:03.207Z,101131.89
2018-12-18T04:38:37.895Z,101132.31
2018-12-18T04:39:12.605Z,101133.59
2018-12-18T04:39:47.298Z,101135.73
2018-12-18T04:40:21.970Z,101140.00
2018-12-18T04:40:57.150Z,101137.89
2018-12-18T04:41:31.771Z,101140.43
2018-12-18T04:42:06.906Z,101141.30
2018-12-18T04:42:41.536Z,101130.60
2018-12-18T04:43:16.177Z,101146.84
2018-12-18T04:43:50.915Z,101144.30
2018-12-18T04:44:25.578Z,101143.00
2018-12-18T04:45:00.231Z,101137.87
2018-12-18T04:45:34.869Z,101135.31
2018-12-18T04:46:09.457Z,101137.85
2018-12-18T04:46:44.500Z,101139.99
2018-12-18T04:47:19.259Z,101140.86
2018-12-18T04:47:53.894Z,101142.98
2018-12-18T04:48:28.600Z,101142.13
2018-12-18T04:49:03.198Z,101138.30
2018-12-18T04:49:37.793Z,101138.74
2018-12-18T04:50:12.576Z,101139.59
2018-12-18T04:50:47.188Z,101127.21
2018-12-18T04:51:22.247Z,101141.30
2018-12-18T04:51:56.836Z,101134.87
2018-12-18T04:52:31.514Z,101133.62
2018-12-18T04:53:06.143Z,101137.88
2018-12-18T04:53:40.743Z,101137.89
2018-12-18T04:54:15.389Z,101134.03
2018-12-18T04:54:50.081Z,101140.45
2018-12-18T04:55:24.767Z,101136.59
2018-12-18T04:55:59.406Z,101137.44
2018-12-18T04:56:34.106Z,101131.88
2018-12-18T04:57:08.734Z,101138.72
2018-12-18T04:57:43.348Z,101141.28
2018-12-18T04:58:18.119Z,101136.60
2018-12-18T04:58:52.883Z,101134.05
2018-12-18T04:59:27.660Z,101131.04
2018-12-18T05:00:02.326Z,101130.61
2018-12-18T05:00:37.034Z,101140.88
2018-12-18T05:01:11.633Z,101132.33
2018-12-18T05:01:46.233Z,101137.02
2018-12-18T05:02:20.908Z,101131.48
2018-12-18T05:02:55.557Z,101127.20
2018-12-18T05:03:30.212Z,101124.64
2018-12-18T05:04:04.850Z,101130.61
2018-12-18T05:04:39.928Z,101124.19
2018-12-18T05:05:14.579Z,101125.48
2018-12-18T05:05:49.217Z,101122.09
2018-12-18T05:06:23.904Z,101120.36
2018-12-18T05:06:58.526Z,101122.48
2018-12-18T05:07:33.326Z,101118.23
2018-12-18T05:08:07.949Z,101119.52
2018-12-18T05:08:42.567Z,101114.80
2018-12-18T05:09:17.525Z,101121.64
2018-12-18T05:09:52.233Z,101116.09
2018-12-18T05:10:27.095Z,101123.77
2018-12-18T05:11:01.710Z,101113.94
2018-12-18T05:11:36.470Z,101120.36
2018-12-18T05:12:12.853Z,101124.63
2018-12-18T05:12:47.499Z,101113.53
2018-12-18T05:13:22.153Z,101122.91
2018-12-18T05:13:56.831Z,101119.50
2018-12-18T05:14:31.444Z,101122.92
2018-12-18T05:15:06.423Z,101120.77
2018-12-18T05:15:41.313Z,101120.36
2018-12-18T05:16:15.990Z,101126.77
2018-12-18T05:16:50.714Z,101127.20
2018-12-18T05:17:25.615Z,101125.48
2018-12-18T05:18:00.239Z,101128.50
2018-12-18T05:18:34.845Z,101119.94
2018-12-18T05:19:09.515Z,101128.03
2018-12-18T05:19:44.107Z,101120.80
2018-12-18T05:20:18.840Z,101124.20
2018-12-18T05:20:53.518Z,101124.63
2018-12-18T05:21:28.524Z,101132.75
2018-12-18T05:22:03.631Z,101125.06
2018-12-18T05:22:38.209Z,101128.47
2018-12-18T05:23:12.828Z,101121.22
2018-12-18T05:23:47.635Z,101127.20
2018-12-18T05:24:22.312Z,101127.59
2018-12-18T05:24:56.991Z,101130.61
2018-12-18T05:25:31.619Z,101127.61
2018-12-18T05:26:06.245Z,101123.36
2018-12-18T05:26:40.936Z,101122.05
2018-12-18T05:27:15.541Z,101120.36
2018-12-18T05:27:50.217Z,101115.21
2018-12-18T05:28:24.852Z,101110.10
2018-12-18T05:28:59.485Z,101111.81
2018-12-18T05:29:34.098Z,101116.95
2018-12-18T05:30:09.809Z,101124.64
2018-12-18T05:30:44.485Z,101117.38
2018-12-18T05:31:19.185Z,101112.67
2018-12-18T05:31:54.003Z,101121.63
2018-12-18T05:32:28.634Z,101115.22
2018-12-18T05:33:03.309Z,101119.50
2018-12-18T05:33:37.905Z,101113.53
2018-12-18T05:34:12.904Z,101119.06
2018-12-18T05:34:47.501Z,101113.51
2018-12-18T05:35:22.242Z,101117.78
2018-12-18T05:35:56.894Z,101109.67
2018-12-18T05:36:31.540Z,101121.63
2018-12-18T05:37:06.148Z,101114.80
2018-12-18T05:37:40.765Z,101117.80
2018-12-18T05:38:15.489Z,101120.80
2018-12-18T05:38:50.162Z,101115.66
2018-12-18T05:39:24.901Z,101118.23
2018-12-18T05:39:59.513Z,101116.08
2018-12-18T05:40:34.111Z,101123.34
2018-12-18T05:41:09.248Z,101110.52
2018-12-18T05:41:43.882Z,101115.23
2018-12-18T05:42:18.552Z,101117.78
2018-12-18T05:42:53.165Z,101116.52
2018-12-18T05:43:28.598Z,101113.95
2018-12-18T05:44:04.460Z,101125.47
2018-12-18T05:44:39.124Z,101123.34
2018-12-18T05:45:13.808Z,101116.09
2018-12-18T05:45:48.471Z,101111.40
2018-12-18T05:46:23.583Z,101114.81
2018-12-18T05:46:58.220Z,101114.39
2018-12-18T05:47:32.798Z,101117.80
2018-12-18T05:48:07.497Z,101120.36
2018-12-18T05:48:42.855Z,101111.79
2018-12-18T05:49:17.636Z,101116.08
2018-12-18T05:49:52.293Z,101109.66
2018-12-18T05:50:26.904Z,101112.22
2018-12-18T05:51:01.608Z,101113.94
2018-12-18T05:51:36.201Z,101113.52
2018-12-18T05:52:10.820Z,101118.23
2018-12-18T05:52:45.425Z,101111.37
2018-12-18T05:53:20.057Z,101117.77
2018-12-18T05:53:54.720Z,101116.95
2018-12-18T05:54:29.329Z,101119.06
2018-12-18T05:55:04.442Z,101115.65
2018-12-18T05:55:39.120Z,101116.48
2018-12-18T05:56:13.750Z,101123.36
2018-12-18T05:56:48.405Z,101118.64
2018-12-18T05:57:23.022Z,101116.92
2018-12-18T05:57:57.703Z,101122.50
2018-12-18T05:58:32.510Z,101121.21
2018-12-18T05:59:07.114Z,101125.48
2018-12-18T06:00:44.863Z,101123.34
2018-12-18T06:01:19.576Z,101124.63
2018-12-18T06:01:54.294Z,101124.20
2018-12-18T06:02:28.908Z,101122.92
2018-12-18T06:03:04.055Z,101125.06
2018-12-18T06:03:38.679Z,101129.77
2018-12-18T06:04:13.373Z,101125.90
2018-12-18T06:04:47.999Z,101120.79
2018-12-18T06:05:22.651Z,101130.19
2018-12-18T06:05:57.282Z,101127.62
2018-12-18T06:06:31.894Z,101123.36
2018-12-18T06:07:06.531Z,101128.05
2018-12-18T06:07:41.176Z,101125.91
2018-12-18T06:08:15.839Z,101131.05
2018-12-18T06:08:50.760Z,101126.34
2018-12-18T06:09:25.405Z,101124.61
2018-12-18T06:10:00.021Z,101121.20
2018-12-18T06:10:35.849Z,101128.47
2018-12-18T06:11:10.461Z,101079.31
2018-12-18T06:11:45.136Z,101123.73
2018-12-18T06:12:19.794Z,101121.61
2018-12-18T06:12:54.598Z,101130.61
2018-12-18T06:13:29.236Z,101128.05
2018-12-18T06:14:03.856Z,101122.08
2018-12-18T06:14:38.504Z,101134.01
2018-12-18T06:15:13.116Z,101123.36
2018-12-18T06:15:47.743Z,101127.20
2018-12-18T06:16:22.428Z,101127.60
2018-12-18T06:16:57.227Z,101121.63
2018-12-18T06:17:31.847Z,101124.63
2018-12-18T06:18:06.478Z,101128.05
2018-12-18T06:18:41.093Z,101128.49
2018-12-18T06:19:15.737Z,101126.34
2018-12-18T06:19:50.380Z,101130.18
2018-12-18T06:20:25.134Z,101128.04
2018-12-18T06:21:01.924Z,101124.64
2018-12-18T06:21:36.550Z,101130.19
2018-12-18T06:22:11.191Z,101126.75
2018-12-18T06:22:45.801Z,101120.78
2018-12-18T06:23:20.572Z,101114.38
2018-12-18T06:23:55.385Z,101122.05
2018-12-18T06:24:30.012Z,101121.20
2018-12-18T06:25:05.594Z,101124.64
2018-12-18T06:25:40.526Z,101119.49
2018-12-18T06:26:15.257Z,101123.77
2018-12-18T06:26:49.958Z,101117.77
2018-12-18T06:27:24.582Z,101121.62
2018-12-18T06:27:59.180Z,101120.36
2018-12-18T06:28:33.771Z,101124.20
2018-12-18T06:29:08.428Z,101122.06
2018-12-18T06:29:43.043Z,101122.92
2018-12-18T06:30:17.742Z,101121.63
2018-12-18T06:30:52.445Z,101118.61
2018-12-18T06:31:27.180Z,101121.18
2018-12-18T06:32:01.789Z,101119.06
2018-12-18T06:32:36.504Z,101119.08
2018-12-18T06:33:11.108Z,101117.79
2018-12-18T06:33:45.890Z,101115.67
2018-12-18T06:34:20.542Z,101117.33
2018-12-18T06:34:55.193Z,101122.91
2018-12-18T06:35:29.885Z,101111.77
2018-12-18T06:36:04.501Z,101117.34
2018-12-18T06:36:39.114Z,101114.77
2018-12-18T06:37:13.713Z,101110.92
2018-12-18T06:37:48.558Z,101116.05
2018-12-18T06:38:23.201Z,101117.35